createdAt,value
2022-12-11T00:00:15.566Z,21.23
2022-12-11T00:00:47.060Z,21.17
2022-12-11T00:01:20.113Z,21.48
2022-12-11T00:01:51.634Z,21.35
2022-12-11T00:02:23.193Z,20.58
2022-12-11T00:02:54.911Z,21.10
2022-12-11T00:03:26.530Z,21.10
2022-12-11T00:03:58.310Z,21.58
2022-12-11T00:04:30.754Z,22.90
2022-12-11T00:05:02.269Z,19.15
2022-12-11T00:05:33.840Z,21.30
2022-12-11T00:06:10.834Z,21.98
2022-12-11T00:06:42.617Z,21.67
2022-12-11T00:07:14.117Z,20.30
2022-12-11T00:07:45.632Z,21.25
2022-12-11T00:08:17.178Z,23.10
2022-12-11T00:08:52.294Z,19.38
2022-12-11T00:09:23.765Z,20.10
2022-12-11T00:09:55.242Z,21.05
2022-12-11T00:10:26.699Z,20.00
2022-12-11T00:10:58.185Z,20.95
2022-12-11T00:11:29.721Z,21.25
2022-12-11T00:12:02.416Z,20.42
2022-12-11T00:12:34.051Z,21.48
2022-12-11T00:13:05.699Z,20.25
2022-12-11T00:13:37.218Z,21.08
2022-12-11T00:14:08.716Z,20.58
2022-12-11T00:14:40.219Z,21.83
2022-12-11T00:15:12.182Z,21.02
2022-12-11T00:15:43.985Z,20.65
2022-12-11T00:16:15.665Z,20.92
2022-12-11T00:16:48.157Z,22.70
2022-12-11T00:17:19.733Z,21.38
2022-12-11T00:17:51.241Z,24.65
2022-12-11T00:18:23.286Z,20.75
2022-12-11T00:18:55.539Z,19.83
2022-12-11T00:19:27.000Z,21.80
2022-12-11T00:19:58.603Z,20.40
2022-12-11T00:20:30.174Z,23.08
2022-12-11T00:21:02.776Z,21.13
2022-12-11T00:21:34.718Z,22.95
2022-12-11T00:22:06.253Z,22.63
2022-12-11T00:22:37.817Z,23.50
2022-12-11T00:23:10.621Z,22.45
2022-12-11T00:23:42.371Z,23.27
2022-12-11T00:24:14.446Z,21.30
2022-12-11T00:24:45.921Z,22.00
2022-12-11T00:25:17.396Z,22.23
2022-12-11T00:25:49.598Z,22.23
2022-12-11T00:26:21.132Z,22.70
2022-12-11T00:26:52.853Z,20.88
2022-12-11T00:27:24.369Z,23.83
2022-12-11T00:27:55.892Z,22.25
2022-12-11T00:28:27.444Z,24.60
2022-12-11T00:28:59.175Z,22.48
2022-12-11T00:29:30.758Z,22.48
2022-12-11T00:30:02.261Z,23.48
2022-12-11T00:30:33.724Z,23.60
2022-12-11T00:31:07.205Z,25.23
2022-12-11T00:31:38.751Z,22.85
2022-12-11T00:32:10.293Z,22.27
2022-12-11T00:32:42.178Z,24.83
2022-12-11T00:33:14.506Z,24.92
2022-12-11T00:33:49.036Z,22.30
2022-12-11T00:34:20.533Z,22.42
2022-12-11T00:34:52.002Z,23.05
2022-12-11T00:35:23.488Z,23.38
2022-12-11T00:35:54.957Z,23.58
2022-12-11T00:36:27.327Z,22.00
2022-12-11T00:36:59.251Z,24.35
2022-12-11T00:37:30.850Z,24.90
2022-12-11T00:38:02.382Z,26.23
2022-12-11T00:38:34.442Z,23.88
2022-12-11T00:39:07.317Z,24.33
2022-12-11T00:39:39.833Z,25.60
2022-12-11T00:40:11.594Z,25.75
2022-12-11T00:40:43.331Z,23.15
2022-12-11T00:41:15.919Z,23.38
2022-12-11T00:41:47.373Z,22.52
2022-12-11T00:42:18.963Z,22.23
2022-12-11T00:42:50.396Z,21.67
2022-12-11T00:43:21.854Z,23.83
2022-12-11T00:43:53.402Z,24.23
2022-12-11T00:44:25.206Z,23.90
2022-12-11T00:44:56.709Z,23.65
2022-12-11T00:45:28.171Z,23.80
2022-12-11T00:45:59.949Z,26.27
2022-12-11T00:46:31.908Z,25.27
2022-12-11T00:47:03.791Z,25.75
2022-12-11T00:47:35.449Z,21.95
2022-12-11T00:48:07.654Z,22.60
2022-12-11T00:48:39.286Z,24.05
2022-12-11T00:49:10.901Z,22.80
2022-12-11T00:49:48.068Z,23.70
2022-12-11T00:50:21.288Z,25.17
2022-12-11T00:50:52.886Z,24.45
2022-12-11T00:51:24.447Z,23.85
2022-12-11T00:51:56.071Z,23.70
2022-12-11T00:52:27.515Z,22.85
2022-12-11T00:52:58.996Z,23.88
2022-12-11T00:53:30.931Z,24.45
2022-12-11T00:54:03.462Z,23.65
2022-12-11T00:54:35.104Z,24.77
2022-12-11T00:55:06.956Z,23.38
2022-12-11T00:55:40.160Z,22.90
2022-12-11T00:56:20.910Z,24.13
2022-12-11T00:56:52.427Z,23.88
2022-12-11T00:57:24.663Z,24.20
2022-12-11T00:57:56.759Z,24.50
2022-12-11T00:58:28.400Z,23.83
2022-12-11T00:58:59.912Z,21.10
2022-12-11T00:59:31.584Z,23.95
2022-12-11T01:00:07.088Z,24.67
2022-12-11T01:00:39.681Z,24.33
2022-12-11T01:01:14.188Z,22.80
2022-12-11T01:01:45.771Z,23.90
2022-12-11T01:02:17.255Z,24.20
2022-12-11T01:02:49.481Z,23.95
2022-12-11T01:03:20.976Z,21.50
2022-12-11T01:03:53.061Z,23.02
2022-12-11T01:04:24.626Z,24.30
2022-12-11T01:04:56.211Z,24.33
2022-12-11T01:05:27.813Z,22.42
2022-12-11T01:05:59.347Z,21.42
2022-12-11T01:06:30.978Z,24.73
2022-12-11T01:07:02.695Z,23.48
2022-12-11T01:07:34.373Z,23.25
2022-12-11T01:08:06.482Z,22.10
2022-12-11T01:08:38.837Z,24.60
2022-12-11T01:09:29.278Z,22.90
2022-12-11T01:10:19.394Z,23.40
2022-12-11T01:10:50.999Z,22.05
2022-12-11T01:11:22.573Z,23.35
2022-12-11T01:11:54.040Z,23.73
2022-12-11T01:12:26.730Z,22.55
2022-12-11T01:13:07.421Z,22.75
2022-12-11T01:13:39.894Z,23.65
2022-12-11T01:14:11.726Z,22.70
2022-12-11T01:14:43.246Z,23.92
2022-12-11T01:15:14.746Z,23.65
2022-12-11T01:15:46.301Z,23.90
2022-12-11T01:16:17.853Z,26.17
2022-12-11T01:16:49.603Z,23.80
2022-12-11T01:17:21.130Z,23.90
2022-12-11T01:17:53.209Z,24.52
2022-12-11T01:18:25.378Z,23.10
2022-12-11T01:18:57.598Z,22.70
2022-12-11T01:19:29.098Z,23.42
2022-12-11T01:20:00.653Z,23.50
2022-12-11T01:20:32.389Z,22.98
2022-12-11T01:21:08.636Z,21.73
2022-12-11T01:21:40.207Z,23.55
2022-12-11T01:22:11.869Z,24.23
2022-12-11T01:22:43.404Z,24.38
2022-12-11T01:23:15.025Z,22.13
2022-12-11T01:23:46.499Z,23.35
2022-12-11T01:24:17.974Z,24.05
2022-12-11T01:24:49.553Z,23.48
2022-12-11T01:25:21.907Z,22.92
2022-12-11T01:25:53.375Z,21.60
2022-12-11T01:26:24.889Z,23.40
2022-12-11T01:26:56.427Z,24.38
2022-12-11T01:27:28.004Z,23.60
2022-12-11T01:27:59.611Z,24.73
2022-12-11T01:28:31.066Z,25.63
2022-12-11T01:29:02.740Z,20.65
2022-12-11T01:29:34.202Z,24.25
2022-12-11T01:30:07.919Z,25.80
2022-12-11T01:30:41.907Z,23.67
2022-12-11T01:31:16.500Z,22.77
2022-12-11T01:31:48.042Z,25.30
2022-12-11T01:32:19.584Z,23.35
2022-12-11T01:32:51.277Z,24.33
2022-12-11T01:33:22.909Z,25.00
2022-12-11T01:33:55.482Z,24.95
2022-12-11T01:34:30.672Z,21.95
2022-12-11T01:35:06.906Z,24.38
2022-12-11T01:35:40.121Z,27.40
2022-12-11T01:36:19.703Z,22.15
2022-12-11T01:36:52.316Z,23.02
2022-12-11T01:37:23.873Z,24.40
2022-12-11T01:37:55.720Z,22.88
2022-12-11T01:38:27.418Z,24.83
2022-12-11T01:38:58.877Z,24.77
2022-12-11T01:39:30.867Z,23.40
2022-12-11T01:40:02.444Z,24.95
2022-12-11T01:40:33.962Z,23.70
2022-12-11T01:41:05.923Z,25.85
2022-12-11T01:41:37.445Z,25.15
2022-12-11T01:42:17.463Z,26.42
2022-12-11T01:42:49.104Z,23.98
2022-12-11T01:43:20.565Z,24.45
2022-12-11T01:44:08.514Z,25.65
2022-12-11T01:44:39.991Z,22.90
2022-12-11T01:45:27.095Z,25.75
2022-12-11T01:45:59.034Z,22.60
2022-12-11T01:46:32.594Z,24.67
2022-12-11T01:47:04.091Z,23.05
2022-12-11T01:47:35.613Z,24.38
2022-12-11T01:48:22.817Z,23.27
2022-12-11T01:48:54.419Z,24.92
2022-12-11T01:49:27.596Z,23.00
2022-12-11T01:49:59.062Z,26.25
2022-12-11T01:50:34.136Z,22.38
2022-12-11T01:51:05.950Z,24.63
2022-12-11T01:51:58.821Z,23.73
2022-12-11T01:52:30.366Z,23.83
2022-12-11T01:53:02.925Z,24.75
2022-12-11T01:53:37.831Z,22.77
2022-12-11T01:54:12.081Z,27.30
2022-12-11T01:54:43.673Z,25.20
2022-12-11T01:55:17.349Z,22.10
2022-12-11T01:55:49.573Z,22.77
2022-12-11T01:56:21.082Z,26.27
2022-12-11T01:56:56.514Z,25.38
2022-12-11T01:57:28.135Z,23.08
2022-12-11T01:58:00.569Z,25.77
2022-12-11T01:58:40.671Z,24.15
2022-12-11T01:59:14.694Z,25.58
2022-12-11T01:59:46.647Z,23.33
2022-12-11T02:00:18.878Z,26.63
2022-12-11T02:00:51.662Z,23.95
2022-12-11T02:01:32.079Z,23.95
2022-12-11T02:02:11.414Z,23.65
2022-12-11T02:02:42.934Z,26.02
2022-12-11T02:03:14.571Z,27.80
2022-12-11T02:03:46.150Z,23.77
2022-12-11T02:04:18.751Z,24.95
2022-12-11T02:04:50.239Z,25.20
2022-12-11T02:05:21.856Z,25.13
2022-12-11T02:05:53.382Z,25.08
2022-12-11T02:06:30.148Z,26.60
2022-12-11T02:07:03.553Z,24.05
2022-12-11T02:07:45.697Z,25.05
2022-12-11T02:08:17.594Z,26.02
2022-12-11T02:08:49.139Z,24.42
2022-12-11T02:09:25.732Z,24.33
2022-12-11T02:09:57.202Z,23.48
2022-12-11T02:10:42.429Z,24.40
2022-12-11T02:11:21.113Z,26.42
2022-12-11T02:12:15.836Z,23.17
2022-12-11T02:12:57.600Z,21.15
2022-12-11T02:13:39.678Z,22.13
2022-12-11T02:14:43.285Z,23.30
2022-12-11T02:15:55.959Z,22.30
2022-12-11T02:17:01.472Z,19.63
2022-12-11T02:17:38.945Z,17.27
2022-12-11T02:18:47.899Z,21.63
2022-12-11T02:19:56.897Z,19.30
2022-12-11T02:20:37.545Z,16.90
2022-12-11T02:21:51.068Z,16.08
2022-12-11T02:22:46.633Z,15.70
2022-12-11T02:23:53.129Z,16.42
2022-12-11T02:24:52.873Z,15.77
2022-12-11T02:25:42.861Z,18.08
2022-12-11T02:26:51.680Z,16.15
2022-12-11T02:27:42.202Z,14.57
2022-12-11T02:28:18.326Z,17.58
2022-12-11T02:29:03.351Z,20.75
2022-12-11T02:29:53.505Z,18.70
2022-12-11T02:30:25.076Z,16.95
2022-12-11T02:31:04.567Z,19.58
2022-12-11T02:31:43.455Z,20.25
2022-12-11T02:32:19.783Z,18.05
2022-12-11T02:32:56.309Z,19.10
2022-12-11T02:33:43.736Z,20.45
2022-12-11T02:34:22.775Z,17.23
2022-12-11T02:34:56.233Z,17.75
2022-12-11T02:35:37.095Z,19.08
2022-12-11T02:36:09.868Z,18.23
2022-12-11T02:36:45.054Z,17.85
2022-12-11T02:37:19.200Z,16.48
2022-12-11T02:37:56.812Z,17.80
2022-12-11T02:38:32.234Z,18.45
2022-12-11T02:39:05.161Z,18.55
2022-12-11T02:39:38.556Z,21.17
2022-12-11T02:40:12.813Z,19.05
2022-12-11T02:40:44.972Z,17.45
2022-12-11T02:41:17.463Z,19.45
2022-12-11T02:41:50.761Z,19.45
2022-12-11T02:42:23.450Z,19.15
2022-12-11T02:42:56.637Z,20.10
2022-12-11T02:43:30.567Z,20.20
2022-12-11T02:44:02.873Z,18.00
2022-12-11T02:44:35.043Z,18.33
2022-12-11T02:45:08.471Z,21.15
2022-12-11T02:45:41.988Z,19.50
2022-12-11T02:46:14.302Z,20.35
2022-12-11T02:46:45.845Z,21.00
2022-12-11T02:47:18.328Z,17.58
2022-12-11T02:47:50.482Z,21.17
2022-12-11T02:48:23.104Z,19.70
2022-12-11T02:48:55.902Z,19.17
2022-12-11T02:49:28.206Z,17.35
2022-12-11T02:50:01.510Z,20.98
2022-12-11T02:50:34.533Z,20.27
2022-12-11T02:51:06.871Z,19.90
2022-12-11T02:51:40.477Z,19.02
2022-12-11T02:52:13.282Z,18.92
2022-12-11T02:52:45.601Z,19.40
2022-12-11T02:53:19.854Z,19.38
2022-12-11T02:53:51.805Z,19.80
2022-12-11T02:54:27.641Z,20.02
2022-12-11T02:55:00.775Z,21.45
2022-12-11T02:55:33.074Z,16.77
2022-12-11T02:56:18.989Z,18.63
2022-12-11T02:57:14.081Z,18.58
2022-12-11T02:57:49.175Z,17.10
2022-12-11T02:58:32.609Z,18.20
2022-12-11T02:59:08.990Z,18.67
2022-12-11T02:59:43.074Z,19.25
2022-12-11T03:00:16.643Z,18.95
2022-12-11T03:00:48.225Z,19.15
2022-12-11T03:01:19.746Z,19.83
2022-12-11T03:01:51.485Z,18.00
2022-12-11T03:02:23.023Z,18.60
2022-12-11T03:02:54.587Z,17.83
2022-12-11T03:03:28.880Z,20.20
2022-12-11T03:04:00.432Z,21.70
2022-12-11T03:04:32.450Z,19.42
2022-12-11T03:05:04.453Z,19.40
2022-12-11T03:05:35.947Z,18.98
2022-12-11T03:06:10.284Z,18.23
2022-12-11T03:06:45.060Z,19.23
2022-12-11T03:07:23.478Z,19.27
2022-12-11T03:07:55.152Z,19.17
2022-12-11T03:08:26.799Z,20.67
2022-12-11T03:08:58.400Z,18.42
2022-12-11T03:09:30.039Z,18.85
2022-12-11T03:10:01.680Z,19.85
2022-12-11T03:10:33.375Z,19.13
2022-12-11T03:11:05.226Z,19.23
2022-12-11T03:11:36.846Z,20.92
2022-12-11T03:12:10.274Z,18.58
2022-12-11T03:12:43.551Z,18.48
2022-12-11T03:13:18.295Z,19.85
2022-12-11T03:13:49.873Z,21.90
2022-12-11T03:14:21.373Z,18.42
2022-12-11T03:14:53.165Z,20.35
2022-12-11T03:15:31.819Z,19.33
2022-12-11T03:16:03.375Z,21.63
2022-12-11T03:16:39.849Z,19.48
2022-12-11T03:17:21.953Z,18.02
2022-12-11T03:17:59.271Z,17.38
2022-12-11T03:18:40.242Z,17.92
2022-12-11T03:20:12.287Z,16.10
2022-12-11T03:21:09.331Z,17.33
2022-12-11T03:21:55.757Z,17.33
2022-12-11T03:22:36.268Z,18.38
2022-12-11T03:23:38.562Z,18.08
2022-12-11T03:24:15.345Z,17.40
2022-12-11T03:25:04.094Z,21.23
2022-12-11T03:26:03.081Z,18.55
2022-12-11T03:26:40.396Z,18.90
2022-12-11T03:27:28.194Z,16.15
2022-12-11T03:28:10.793Z,17.00
2022-12-11T03:28:50.092Z,21.77
2022-12-11T03:29:24.850Z,19.60
2022-12-11T03:30:04.016Z,19.50
2022-12-11T03:30:36.716Z,17.88
2022-12-11T03:31:12.012Z,17.60
2022-12-11T03:31:54.672Z,19.45
2022-12-11T03:32:29.734Z,22.08
2022-12-11T03:33:11.594Z,19.35
2022-12-11T03:33:46.185Z,19.58
2022-12-11T03:34:27.437Z,19.92
2022-12-11T03:35:25.095Z,18.30
2022-12-11T03:36:01.716Z,19.10
2022-12-11T03:36:36.705Z,17.27
2022-12-11T03:37:08.914Z,19.67
2022-12-11T03:37:41.316Z,15.73
2022-12-11T03:38:20.045Z,20.10
2022-12-11T03:39:14.151Z,17.77
2022-12-11T03:39:51.074Z,19.85
2022-12-11T03:40:23.855Z,18.27
2022-12-11T03:40:58.281Z,18.77
2022-12-11T03:41:31.335Z,18.88
2022-12-11T03:42:06.128Z,19.70
2022-12-11T03:42:38.862Z,20.73
2022-12-11T03:43:11.380Z,20.00
2022-12-11T03:43:42.928Z,20.02
2022-12-11T03:44:15.135Z,17.70
2022-12-11T03:44:48.212Z,17.30
2022-12-11T03:45:21.136Z,18.23
2022-12-11T03:45:53.805Z,20.30
2022-12-11T03:46:30.352Z,19.88
2022-12-11T03:47:03.770Z,20.35
2022-12-11T03:47:36.326Z,20.27
2022-12-11T03:48:09.434Z,18.92
2022-12-11T03:48:42.550Z,20.70
2022-12-11T03:49:21.296Z,17.88
2022-12-11T03:49:53.623Z,19.45
2022-12-11T03:50:26.688Z,16.60
2022-12-11T03:50:59.358Z,18.63
2022-12-11T03:51:31.663Z,19.08
2022-12-11T03:52:04.056Z,18.45
2022-12-11T03:52:40.937Z,17.67
2022-12-11T03:53:16.204Z,17.77
2022-12-11T03:53:47.922Z,16.92
2022-12-11T03:54:19.709Z,18.88
2022-12-11T03:54:51.380Z,17.23
2022-12-11T03:55:23.281Z,18.10
2022-12-11T03:55:56.315Z,20.58
2022-12-11T03:56:30.266Z,19.33
2022-12-11T03:57:02.911Z,18.05
2022-12-11T03:57:36.616Z,20.50
2022-12-11T03:58:08.072Z,19.02
2022-12-11T03:58:39.624Z,16.73
2022-12-11T03:59:11.105Z,18.15
2022-12-11T03:59:42.549Z,21.23
2022-12-11T04:00:17.330Z,20.95
2022-12-11T04:00:48.774Z,17.85
2022-12-11T04:01:20.317Z,17.30
2022-12-11T04:01:51.982Z,18.90
2022-12-11T04:02:23.489Z,18.63
2022-12-11T04:03:14.146Z,18.25
2022-12-11T04:03:46.156Z,17.98
2022-12-11T04:04:17.895Z,18.08
2022-12-11T04:04:49.473Z,16.23
2022-12-11T04:05:21.007Z,20.88
2022-12-11T04:05:55.266Z,18.88
2022-12-11T04:06:26.961Z,19.58
2022-12-11T04:06:58.516Z,18.15
2022-12-11T04:07:31.276Z,20.67
2022-12-11T04:08:02.809Z,20.77
2022-12-11T04:08:34.507Z,19.27
2022-12-11T04:09:06.039Z,19.25
2022-12-11T04:09:37.586Z,19.05
2022-12-11T04:10:09.182Z,20.45
2022-12-11T04:10:41.264Z,19.15
2022-12-11T04:11:31.252Z,19.23
2022-12-11T04:12:02.798Z,18.30
2022-12-11T04:12:34.393Z,17.73
2022-12-11T04:13:06.315Z,20.15
2022-12-11T04:13:39.226Z,17.60
2022-12-11T04:14:32.377Z,19.55
2022-12-11T04:15:04.087Z,17.88
2022-12-11T04:15:35.932Z,18.33
2022-12-11T04:16:08.405Z,18.90
2022-12-11T04:16:39.934Z,18.25
2022-12-11T04:17:11.767Z,17.67
2022-12-11T04:18:01.625Z,17.92
2022-12-11T04:18:51.833Z,18.88
2022-12-11T04:19:42.666Z,18.52
2022-12-11T04:20:32.727Z,18.17
2022-12-11T04:21:22.705Z,17.02
2022-12-11T04:22:12.916Z,15.77
2022-12-11T04:23:02.972Z,17.25
2022-12-11T04:23:53.171Z,14.77
2022-12-11T04:24:24.665Z,17.00
2022-12-11T04:24:56.224Z,17.70
2022-12-11T04:25:27.733Z,17.73
2022-12-11T04:26:12.627Z,20.48
2022-12-11T04:26:45.429Z,18.73
2022-12-11T04:27:38.393Z,19.00
2022-12-11T04:28:10.133Z,16.98
2022-12-11T04:28:42.913Z,16.95
2022-12-11T04:29:15.031Z,18.70
2022-12-11T04:29:46.775Z,18.35
2022-12-11T04:30:33.803Z,19.63
2022-12-11T04:31:06.029Z,17.05
2022-12-11T04:31:37.557Z,18.15
2022-12-11T04:32:09.001Z,17.77
2022-12-11T04:32:40.485Z,17.75
2022-12-11T04:33:12.016Z,16.30
2022-12-11T04:33:43.808Z,19.20
2022-12-11T04:34:15.256Z,20.27
2022-12-11T04:34:46.710Z,19.42
2022-12-11T04:35:18.698Z,20.40
2022-12-11T04:35:50.164Z,17.70
2022-12-11T04:36:21.739Z,16.58
2022-12-11T04:36:53.217Z,19.33
2022-12-11T04:37:24.764Z,17.73
2022-12-11T04:37:56.817Z,18.17
2022-12-11T04:38:28.289Z,17.02
2022-12-11T04:38:59.832Z,19.00
2022-12-11T04:39:31.409Z,19.83
2022-12-11T04:40:04.764Z,17.70
2022-12-11T04:40:36.305Z,17.02
2022-12-11T04:41:10.482Z,20.38
2022-12-11T04:41:42.037Z,17.83
2022-12-11T04:42:13.591Z,17.98
2022-12-11T04:42:45.102Z,18.85
2022-12-11T04:43:16.586Z,17.02
2022-12-11T04:43:48.158Z,19.30
2022-12-11T04:44:19.686Z,19.08
2022-12-11T04:44:51.157Z,18.55
2022-12-11T04:45:22.740Z,17.85
2022-12-11T04:46:06.135Z,17.48
2022-12-11T04:46:37.934Z,16.10
2022-12-11T04:47:09.521Z,17.20
2022-12-11T04:47:41.477Z,19.13
2022-12-11T04:48:12.927Z,18.27
2022-12-11T04:48:45.173Z,17.30
2022-12-11T04:49:16.651Z,17.45
2022-12-11T04:49:48.131Z,17.55
2022-12-11T04:50:19.655Z,18.02
2022-12-11T04:50:51.113Z,17.40
2022-12-11T04:51:22.661Z,18.90
2022-12-11T04:51:54.121Z,20.02
2022-12-11T04:52:25.697Z,17.30
2022-12-11T04:52:57.625Z,16.98
2022-12-11T04:53:29.328Z,19.25
2022-12-11T04:54:00.973Z,18.25
2022-12-11T04:54:33.016Z,17.92
2022-12-11T04:55:05.961Z,16.40
2022-12-11T04:55:39.209Z,18.30
2022-12-11T04:56:13.018Z,16.20
2022-12-11T04:56:44.654Z,16.88
2022-12-11T04:57:16.726Z,19.58
2022-12-11T04:57:48.218Z,19.38
2022-12-11T04:58:19.780Z,20.08
2022-12-11T04:58:51.283Z,17.50
2022-12-11T04:59:22.779Z,17.45
2022-12-11T04:59:54.268Z,20.55
2022-12-11T05:00:25.779Z,18.33
2022-12-11T05:00:57.271Z,18.35
2022-12-11T05:01:29.283Z,18.88
2022-12-11T05:02:01.015Z,17.83
2022-12-11T05:02:35.968Z,20.38
2022-12-11T05:03:08.156Z,18.70
2022-12-11T05:03:40.548Z,17.95
2022-12-11T05:04:12.000Z,19.75
2022-12-11T05:04:43.714Z,17.90
2022-12-11T05:05:15.149Z,20.10
2022-12-11T05:05:50.919Z,17.92
2022-12-11T05:06:22.364Z,19.65
2022-12-11T05:06:53.837Z,18.42
2022-12-11T05:07:25.363Z,16.88
2022-12-11T05:07:57.443Z,18.58
2022-12-11T05:08:28.935Z,16.98
2022-12-11T05:09:00.395Z,19.98
2022-12-11T05:09:32.106Z,18.75
2022-12-11T05:10:04.578Z,18.38
2022-12-11T05:10:36.168Z,20.73
2022-12-11T05:11:10.092Z,21.48
2022-12-11T05:11:42.123Z,18.45
2022-12-11T05:12:13.776Z,18.85
2022-12-11T05:12:45.364Z,16.48
2022-12-11T05:13:16.851Z,19.10
2022-12-11T05:13:48.416Z,19.05
2022-12-11T05:14:20.078Z,17.20
2022-12-11T05:14:53.145Z,17.45
2022-12-11T05:15:24.624Z,19.15
2022-12-11T05:15:56.459Z,20.73
2022-12-11T05:16:28.034Z,19.38
2022-12-11T05:16:59.703Z,17.20
2022-12-11T05:17:31.152Z,19.20
2022-12-11T05:18:02.612Z,20.45
2022-12-11T05:18:34.639Z,20.00
2022-12-11T05:19:06.255Z,19.52
2022-12-11T05:19:37.742Z,17.25
2022-12-11T05:20:10.549Z,18.02
2022-12-11T05:20:42.047Z,20.80
2022-12-11T05:21:15.020Z,19.77
2022-12-11T05:21:46.475Z,20.55
2022-12-11T05:22:18.809Z,20.13
2022-12-11T05:22:50.427Z,19.42
2022-12-11T05:23:21.888Z,23.15
2022-12-11T05:23:53.355Z,20.83
2022-12-11T05:24:24.822Z,22.38
2022-12-11T05:24:56.319Z,22.58
2022-12-11T05:25:27.820Z,22.17
2022-12-11T05:26:01.790Z,22.08
2022-12-11T05:26:33.276Z,21.00
2022-12-11T05:27:04.732Z,21.60
2022-12-11T05:27:36.320Z,21.63
2022-12-11T05:28:07.853Z,24.38
2022-12-11T05:28:40.454Z,21.17
2022-12-11T05:29:12.263Z,21.50
2022-12-11T05:29:43.713Z,20.30
2022-12-11T05:30:15.361Z,22.50
2022-12-11T05:30:47.046Z,21.98
2022-12-11T05:31:24.611Z,22.25
2022-12-11T05:31:56.247Z,21.45
2022-12-11T05:32:28.506Z,21.45
2022-12-11T05:32:59.961Z,19.95
2022-12-11T05:33:31.630Z,23.05
2022-12-11T05:34:03.397Z,21.00
2022-12-11T05:34:34.868Z,20.52
2022-12-11T05:35:06.743Z,21.58
2022-12-11T05:35:38.369Z,22.15
2022-12-11T05:36:15.679Z,23.65
2022-12-11T05:36:47.402Z,20.85
2022-12-11T05:37:18.849Z,21.45
2022-12-11T05:37:50.354Z,23.00
2022-12-11T05:38:22.641Z,21.70
2022-12-11T05:38:54.630Z,21.73
2022-12-11T05:39:26.142Z,22.38
2022-12-11T05:39:57.619Z,21.15
2022-12-11T05:40:29.110Z,20.60
2022-12-11T05:41:02.696Z,20.08
2022-12-11T05:41:34.253Z,22.77
2022-12-11T05:42:05.749Z,20.77
2022-12-11T05:42:37.310Z,20.75
2022-12-11T05:43:09.122Z,22.40
2022-12-11T05:43:40.654Z,22.00
2022-12-11T05:44:13.311Z,20.15
2022-12-11T05:44:44.765Z,23.52
2022-12-11T05:45:16.317Z,20.17
2022-12-11T05:45:47.766Z,19.73
2022-12-11T05:46:24.890Z,22.75
2022-12-11T05:46:56.435Z,20.25
2022-12-11T05:47:27.959Z,21.70
2022-12-11T05:47:59.422Z,22.33
2022-12-11T05:48:30.897Z,22.95
2022-12-11T05:49:03.150Z,22.17
2022-12-11T05:49:34.614Z,20.05
2022-12-11T05:50:06.517Z,22.55
2022-12-11T05:50:37.982Z,19.85
2022-12-11T05:51:13.168Z,21.10
2022-12-11T05:51:44.813Z,23.20
2022-12-11T05:52:16.889Z,22.95
2022-12-11T05:52:48.367Z,21.67
2022-12-11T05:53:19.833Z,24.75
2022-12-11T05:53:52.572Z,22.60
2022-12-11T05:54:24.031Z,23.17
2022-12-11T05:54:55.505Z,23.80
2022-12-11T05:55:26.980Z,20.27
2022-12-11T05:56:07.909Z,21.83
2022-12-11T05:56:39.607Z,22.90
2022-12-11T05:57:11.123Z,22.48
2022-12-11T05:57:42.587Z,22.70
2022-12-11T05:58:14.059Z,23.13
2022-12-11T05:58:46.216Z,22.17
2022-12-11T05:59:19.609Z,23.85
2022-12-11T05:59:51.078Z,24.63
2022-12-11T06:00:22.535Z,21.27
2022-12-11T06:00:54.069Z,22.92
2022-12-11T06:01:31.620Z,22.42
2022-12-11T06:02:03.210Z,21.95
2022-12-11T06:02:35.864Z,23.77
2022-12-11T06:03:07.746Z,22.88
2022-12-11T06:03:39.343Z,21.00
2022-12-11T06:04:12.222Z,20.52
2022-12-11T06:04:43.845Z,23.55
2022-12-11T06:05:15.427Z,22.92
2022-12-11T06:05:46.912Z,22.45
2022-12-11T06:06:18.468Z,22.10
2022-12-11T06:06:49.925Z,21.33
2022-12-11T06:07:21.395Z,23.17
2022-12-11T06:07:52.980Z,23.52
2022-12-11T06:08:24.489Z,22.88
2022-12-11T06:08:58.309Z,22.42
2022-12-11T06:09:30.063Z,23.17
2022-12-11T06:10:01.543Z,21.20
2022-12-11T06:10:33.177Z,23.30
2022-12-11T06:11:06.714Z,22.95
2022-12-11T06:11:39.135Z,22.85
2022-12-11T06:12:10.592Z,23.45
2022-12-11T06:12:42.210Z,22.90
2022-12-11T06:13:14.192Z,22.35
2022-12-11T06:13:45.845Z,23.77
2022-12-11T06:14:17.365Z,22.20
2022-12-11T06:14:48.806Z,22.45
2022-12-11T06:15:20.275Z,23.02
2022-12-11T06:15:51.776Z,22.40
2022-12-11T06:16:23.794Z,21.85
2022-12-11T06:16:55.466Z,24.25
2022-12-11T06:17:26.927Z,23.50
2022-12-11T06:17:58.445Z,21.70
2022-12-11T06:18:30.134Z,23.25
2022-12-11T06:19:01.657Z,21.17
2022-12-11T06:19:36.790Z,22.55
2022-12-11T06:20:08.924Z,20.90
2022-12-11T06:20:40.701Z,22.52
2022-12-11T06:21:21.052Z,23.20
2022-12-11T06:21:52.882Z,22.95
2022-12-11T06:22:24.384Z,21.05
2022-12-11T06:22:55.984Z,21.85
2022-12-11T06:23:27.451Z,22.55
2022-12-11T06:24:01.630Z,21.42
2022-12-11T06:24:33.459Z,22.02
2022-12-11T06:25:05.531Z,20.98
2022-12-11T06:25:40.259Z,21.42
2022-12-11T06:26:12.371Z,23.05
2022-12-11T06:26:43.885Z,20.90
2022-12-11T06:27:15.449Z,21.00
2022-12-11T06:27:46.917Z,22.92
2022-12-11T06:28:18.486Z,22.75
2022-12-11T06:28:50.537Z,23.70
2022-12-11T06:29:22.001Z,23.77
2022-12-11T06:29:53.450Z,23.13
2022-12-11T06:30:39.267Z,22.23
2022-12-11T06:31:11.707Z,21.75
2022-12-11T06:31:43.324Z,24.00
2022-12-11T06:32:15.312Z,21.63
2022-12-11T06:32:46.978Z,23.98
2022-12-11T06:33:18.448Z,21.05
2022-12-11T06:33:49.888Z,23.55
2022-12-11T06:34:21.345Z,22.35
2022-12-11T06:34:52.874Z,22.33
2022-12-11T06:35:24.643Z,23.38
2022-12-11T06:35:56.896Z,21.70
2022-12-11T06:36:28.351Z,22.90
2022-12-11T06:36:59.857Z,22.58
2022-12-11T06:37:31.304Z,22.88
2022-12-11T06:38:02.767Z,23.05
2022-12-11T06:38:34.296Z,22.58
2022-12-11T06:39:05.813Z,21.30
2022-12-11T06:39:37.267Z,22.73
2022-12-11T06:40:10.201Z,22.48
2022-12-11T06:40:41.691Z,24.25
2022-12-11T06:41:14.478Z,23.05
2022-12-11T06:41:46.059Z,21.90
2022-12-11T06:42:17.733Z,22.17
2022-12-11T06:42:49.426Z,23.02
2022-12-11T06:43:20.930Z,23.33
2022-12-11T06:43:52.565Z,23.10
2022-12-11T06:44:25.002Z,22.15
2022-12-11T06:44:57.606Z,21.90
2022-12-11T06:45:29.150Z,22.52
2022-12-11T06:46:07.296Z,22.38
2022-12-11T06:46:38.817Z,21.05
2022-12-11T06:47:10.273Z,23.35
2022-12-11T06:47:41.736Z,23.38
2022-12-11T06:48:13.195Z,21.67
2022-12-11T06:48:45.036Z,23.58
2022-12-11T06:49:16.510Z,21.92
2022-12-11T06:49:48.361Z,23.33
2022-12-11T06:50:19.833Z,24.95
2022-12-11T06:50:51.362Z,23.10
2022-12-11T06:51:23.249Z,23.58
2022-12-11T06:51:54.709Z,24.38
2022-12-11T06:52:27.555Z,23.10
2022-12-11T06:52:59.364Z,21.58
2022-12-11T06:53:30.818Z,22.92
2022-12-11T06:54:02.322Z,21.83
2022-12-11T06:54:33.819Z,22.80
2022-12-11T06:55:05.835Z,23.00
2022-12-11T06:55:37.553Z,22.73
2022-12-11T06:56:11.702Z,22.88
2022-12-11T06:56:43.178Z,21.02
2022-12-11T06:57:15.461Z,24.02
2022-12-11T06:57:46.938Z,22.73
2022-12-11T06:58:18.448Z,22.45
2022-12-11T06:58:50.179Z,22.17
2022-12-11T06:59:21.772Z,24.00
2022-12-11T06:59:53.216Z,23.20
2022-12-11T07:00:24.671Z,21.48
2022-12-11T07:00:56.139Z,20.92
2022-12-11T07:01:28.335Z,23.23
2022-12-11T07:01:59.983Z,23.30
2022-12-11T07:02:31.800Z,23.48
2022-12-11T07:03:03.973Z,21.95
2022-12-11T07:03:35.467Z,22.83
2022-12-11T07:04:07.134Z,23.15
2022-12-11T07:04:38.606Z,22.67
2022-12-11T07:05:10.503Z,21.88
2022-12-11T07:05:42.393Z,21.20
2022-12-11T07:06:14.942Z,22.63
2022-12-11T07:06:47.441Z,20.17
2022-12-11T07:07:19.912Z,22.25
2022-12-11T07:07:53.945Z,21.02
2022-12-11T07:08:27.889Z,20.67
2022-12-11T07:08:59.445Z,21.75
2022-12-11T07:09:31.063Z,21.23
2022-12-11T07:10:07.900Z,21.52
2022-12-11T07:10:40.538Z,20.45
2022-12-11T07:11:15.133Z,21.23
2022-12-11T07:11:49.939Z,21.88
2022-12-11T07:12:21.603Z,22.33
2022-12-11T07:12:54.304Z,21.17
2022-12-11T07:13:25.885Z,22.75
2022-12-11T07:14:03.308Z,23.25
2022-12-11T07:14:34.894Z,22.25
2022-12-11T07:15:06.895Z,21.95
2022-12-11T07:15:40.478Z,23.77
2022-12-11T07:16:13.922Z,21.85
2022-12-11T07:16:45.635Z,22.00
2022-12-11T07:17:17.151Z,21.38
2022-12-11T07:17:48.746Z,22.00
2022-12-11T07:18:20.227Z,22.55